createdAt,value
2022-08-17T00:00:43.055Z,17.50
2022-08-17T00:03:10.568Z,17.47
2022-08-17T00:05:44.691Z,17.43
2022-08-17T00:08:14.753Z,17.54
2022-08-17T00:10:44.261Z,17.51
2022-08-17T00:13:14.587Z,17.52
2022-08-17T00:15:43.826Z,17.56
2022-08-17T00:18:57.453Z,17.54
2022-08-17T00:21:03.077Z,17.52
2022-08-17T00:23:31.865Z,17.42
2022-08-17T00:26:00.729Z,17.43
2022-08-17T00:28:29.229Z,17.36
2022-08-17T00:31:01.361Z,17.31
2022-08-17T00:33:31.835Z,17.23
2022-08-17T00:36:02.299Z,17.20
2022-08-17T00:38:30.959Z,17.19
2022-08-17T00:41:01.318Z,17.21
2022-08-17T00:43:33.259Z,17.23
2022-08-17T00:46:03.945Z,17.24
2022-08-17T00:48:32.551Z,17.18
2022-08-17T00:51:08.414Z,17.18
2022-08-17T00:53:40.243Z,17.11
2022-08-17T00:56:12.115Z,17.08
2022-08-17T00:58:40.231Z,17.08
2022-08-17T01:01:11.246Z,17.04
2022-08-17T01:03:40.342Z,17.03
2022-08-17T01:06:10.297Z,16.98
2022-08-17T01:08:42.088Z,16.91
2022-08-17T01:11:10.694Z,16.90
2022-08-17T01:13:42.232Z,16.80
2022-08-17T01:16:17.212Z,16.64
2022-08-17T01:18:48.766Z,16.76
2022-08-17T01:21:27.834Z,16.74
2022-08-17T01:23:57.692Z,16.71
2022-08-17T01:26:26.029Z,16.73
2022-08-17T01:28:55.979Z,16.68
2022-08-17T01:31:27.154Z,16.64
2022-08-17T01:33:55.200Z,16.58
2022-08-17T01:36:23.531Z,16.55
2022-08-17T01:38:51.661Z,16.48
2022-08-17T01:41:23.125Z,16.50
2022-08-17T01:43:55.202Z,16.49
2022-08-17T01:46:27.021Z,16.38
2022-08-17T01:48:57.594Z,16.45
2022-08-17T01:51:27.166Z,16.28
2022-08-17T01:53:58.623Z,16.30
2022-08-17T01:56:30.996Z,16.21
2022-08-17T01:58:58.945Z,16.18
2022-08-17T02:01:32.246Z,16.22
2022-08-17T02:04:01.270Z,16.20
2022-08-17T02:06:31.454Z,16.24
2022-08-17T02:09:16.749Z,16.22
2022-08-17T02:11:47.360Z,16.23
2022-08-17T02:14:15.682Z,16.24
2022-08-17T02:16:44.391Z,16.24
2022-08-17T02:19:16.051Z,16.16
2022-08-17T02:21:47.396Z,16.20
2022-08-17T02:24:58.149Z,16.29
2022-08-17T02:27:11.389Z,16.21
2022-08-17T02:29:39.776Z,16.16
2022-08-17T02:32:09.075Z,16.16
2022-08-17T02:34:37.582Z,16.12
2022-08-17T02:37:06.319Z,16.21
2022-08-17T02:39:34.322Z,16.18
2022-08-17T02:42:03.234Z,16.26
2022-08-17T02:44:39.468Z,16.22
2022-08-17T02:47:10.013Z,16.28
2022-08-17T02:49:38.429Z,16.33
2022-08-17T02:52:08.683Z,16.23
2022-08-17T02:54:42.251Z,16.22
2022-08-17T02:57:11.420Z,16.18
2022-08-17T02:59:48.355Z,16.06
2022-08-17T03:02:17.646Z,16.08
2022-08-17T03:04:45.618Z,15.98
2022-08-17T03:07:13.800Z,15.94
2022-08-17T03:09:41.807Z,15.82
2022-08-17T03:12:12.517Z,15.77
2022-08-17T03:14:43.214Z,15.79
2022-08-17T03:17:15.891Z,15.84
2022-08-17T03:19:45.458Z,15.79
2022-08-17T03:22:37.197Z,15.69
2022-08-17T03:25:01.393Z,15.61
2022-08-17T03:27:30.225Z,15.62
2022-08-17T03:29:59.416Z,15.57
2022-08-17T03:32:27.235Z,15.61
2022-08-17T03:34:59.142Z,15.65
2022-08-17T03:37:27.053Z,15.71
2022-08-17T03:39:54.896Z,15.77
2022-08-17T03:42:32.540Z,15.75
2022-08-17T03:45:03.425Z,15.69
2022-08-17T03:47:49.360Z,15.71
2022-08-17T03:50:35.173Z,15.80
2022-08-17T03:53:22.800Z,15.71
2022-08-17T03:56:08.070Z,15.79
2022-08-17T03:58:37.697Z,15.93
2022-08-17T04:01:08.007Z,15.91
2022-08-17T04:03:36.131Z,15.87
2022-08-17T04:06:04.173Z,15.95
2022-08-17T04:08:32.368Z,15.88
2022-08-17T04:11:02.105Z,15.94
2022-08-17T04:13:30.243Z,15.97
2022-08-17T04:15:59.190Z,16.02
2022-08-17T04:18:28.685Z,16.01
2022-08-17T04:20:56.790Z,16.11
2022-08-17T04:23:32.941Z,16.23
2022-08-17T04:26:01.805Z,16.35
2022-08-17T04:28:30.372Z,16.63
2022-08-17T04:30:58.504Z,16.98
2022-08-17T04:33:31.313Z,18.00
2022-08-17T04:36:01.624Z,19.14
2022-08-17T04:38:32.141Z,20.03
2022-08-17T04:41:18.449Z,21.03
2022-08-17T04:43:49.043Z,21.69
2022-08-17T04:46:18.581Z,21.37
2022-08-17T04:48:50.618Z,20.80
2022-08-17T04:51:22.463Z,20.94
2022-08-17T04:54:02.624Z,20.70
2022-08-17T04:56:31.846Z,21.93
2022-08-17T04:59:03.651Z,22.56
2022-08-17T05:01:34.906Z,23.20
2022-08-17T05:04:33.110Z,23.29
2022-08-17T05:06:55.690Z,24.44
2022-08-17T05:09:24.366Z,24.77
2022-08-17T05:11:52.231Z,25.40
2022-08-17T05:14:32.463Z,26.19
2022-08-17T05:17:01.711Z,27.72
2022-08-17T05:19:36.559Z,28.64
2022-08-17T05:22:06.044Z,29.03
2022-08-17T05:24:38.407Z,29.13
2022-08-17T05:27:17.796Z,29.35
2022-08-17T05:29:47.210Z,29.45
2022-08-17T05:32:39.055Z,29.54
2022-08-17T05:35:10.452Z,30.94
2022-08-17T05:37:38.989Z,31.11
2022-08-17T05:40:08.682Z,30.64
2022-08-17T05:42:36.512Z,30.80
2022-08-17T05:45:05.281Z,31.27
2022-08-17T05:47:33.023Z,31.54
2022-08-17T05:50:02.777Z,32.10
2022-08-17T05:52:48.920Z,32.76
2022-08-17T05:55:27.363Z,33.25
2022-08-17T05:58:07.801Z,32.49
2022-08-17T06:00:44.911Z,32.15
2022-08-17T06:03:30.306Z,32.59
2022-08-17T06:06:13.387Z,31.76
2022-08-17T06:08:51.771Z,31.47
2022-08-17T06:11:30.486Z,31.41
2022-08-17T06:14:14.734Z,32.98
2022-08-17T06:16:45.931Z,33.86
2022-08-17T06:19:18.355Z,33.52
2022-08-17T06:21:49.436Z,35.15
2022-08-17T06:24:27.417Z,34.93
2022-08-17T06:26:56.376Z,34.66
2022-08-17T06:29:37.483Z,36.14
2022-08-17T06:32:08.592Z,36.27
2022-08-17T06:34:38.466Z,36.24
2022-08-17T06:37:15.325Z,34.41
2022-08-17T06:39:54.358Z,33.90
2022-08-17T06:42:54.882Z,34.09
2022-08-17T06:45:26.264Z,34.95
2022-08-17T06:48:03.119Z,35.76
2022-08-17T06:50:37.088Z,35.39
2022-08-17T06:53:21.361Z,36.21
2022-08-17T06:55:59.763Z,37.16
2022-08-17T06:58:31.484Z,38.97
2022-08-17T07:01:05.742Z,38.78
2022-08-17T07:03:39.466Z,39.01
2022-08-17T07:06:13.564Z,38.74
2022-08-17T07:08:52.077Z,38.54
2022-08-17T07:11:28.682Z,38.80
2022-08-17T07:14:08.317Z,40.48
2022-08-17T07:16:42.515Z,40.33
2022-08-17T07:19:11.209Z,39.38
2022-08-17T07:21:50.337Z,39.62
2022-08-17T07:24:35.886Z,42.00
2022-08-17T07:27:12.566Z,42.26
2022-08-17T07:29:44.159Z,43.51
2022-08-17T07:32:18.691Z,43.10
2022-08-17T07:35:08.499Z,41.87
2022-08-17T07:37:40.740Z,40.81
2022-08-17T07:40:21.366Z,43.12
2022-08-17T07:43:23.102Z,42.18
2022-08-17T07:46:24.784Z,43.32
2022-08-17T07:48:54.851Z,44.23
2022-08-17T07:51:30.083Z,43.20
2022-08-17T07:54:13.578Z,43.07
2022-08-17T07:56:47.197Z,43.96
2022-08-17T07:59:23.175Z,44.21
2022-08-17T08:02:18.810Z,44.93
2022-08-17T08:05:01.353Z,46.19
2022-08-17T08:07:34.921Z,45.89
2022-08-17T08:10:11.604Z,45.78
2022-08-17T08:12:41.725Z,46.05
2022-08-17T08:15:21.389Z,44.52
2022-08-17T08:17:53.882Z,44.82
2022-08-17T08:20:53.289Z,45.96
2022-08-17T08:23:43.023Z,45.90
2022-08-17T08:26:21.771Z,45.37
2022-08-17T08:29:13.068Z,46.76
2022-08-17T08:32:00.185Z,46.17
2022-08-17T08:35:00.178Z,47.90
2022-08-17T08:37:49.371Z,47.28
2022-08-17T08:40:34.590Z,46.57
2022-08-17T08:43:15.069Z,45.29
2022-08-17T08:45:50.759Z,46.58
2022-08-17T08:48:56.493Z,47.27
2022-08-17T08:51:37.529Z,47.72
2022-08-17T08:54:16.029Z,47.96
2022-08-17T08:57:21.882Z,46.49
2022-08-17T08:59:57.707Z,48.38
2022-08-17T09:02:40.224Z,48.00
2022-08-17T09:05:22.692Z,48.82
2022-08-17T09:08:04.716Z,46.74
2022-08-17T09:10:40.887Z,46.17
2022-08-17T09:13:21.158Z,47.20
2022-08-17T09:15:55.965Z,45.34
2022-08-17T09:19:01.661Z,46.53
2022-08-17T09:21:23.021Z,48.07
2022-08-17T09:24:02.750Z,47.85
2022-08-17T09:26:35.511Z,46.40
2022-08-17T09:29:09.986Z,46.71
2022-08-17T09:31:49.298Z,46.42
2022-08-17T09:34:26.968Z,47.08
2022-08-17T09:37:08.558Z,47.18
2022-08-17T09:39:44.069Z,47.27
2022-08-17T09:42:22.689Z,45.20
2022-08-17T09:44:56.706Z,44.87
2022-08-17T09:47:31.708Z,44.11
2022-08-17T09:50:07.299Z,47.61
2022-08-17T09:52:36.639Z,48.01
2022-08-17T09:55:07.837Z,49.12
2022-08-17T09:57:51.770Z,48.55
2022-08-17T10:00:25.439Z,47.87
2022-08-17T10:03:17.167Z,46.80
2022-08-17T10:05:56.357Z,45.01
2022-08-17T10:08:34.936Z,44.96
2022-08-17T10:11:33.469Z,46.28
2022-08-17T10:14:36.333Z,46.63
2022-08-17T10:17:04.766Z,45.25
2022-08-17T10:19:37.497Z,45.86
2022-08-17T10:22:34.914Z,47.46
2022-08-17T10:25:42.861Z,43.93
2022-08-17T10:28:23.722Z,46.78
2022-08-17T10:34:01.166Z,42.76
2022-08-17T10:36:43.225Z,43.03
2022-08-17T10:39:22.718Z,45.69
2022-08-17T10:41:57.001Z,45.23
2022-08-17T10:44:39.319Z,43.95
2022-08-17T10:47:11.924Z,45.33
2022-08-17T10:49:47.661Z,45.67
2022-08-17T10:52:48.954Z,47.02
2022-08-17T10:55:18.971Z,45.68
2022-08-17T10:57:50.951Z,44.80
2022-08-17T11:01:12.707Z,42.10
2022-08-17T11:03:55.107Z,44.50
2022-08-17T11:06:32.858Z,44.23
2022-08-17T11:09:28.880Z,43.85
2022-08-17T11:12:12.927Z,42.58
2022-08-17T11:15:05.076Z,40.34
2022-08-17T11:17:54.054Z,38.94
2022-08-17T11:20:40.863Z,39.59
2022-08-17T11:23:22.187Z,40.60
2022-08-17T11:25:54.156Z,40.56
2022-08-17T11:28:26.093Z,37.77
2022-08-17T11:30:58.834Z,38.98
2022-08-17T11:34:04.854Z,39.65
2022-08-17T11:37:12.350Z,38.01
2022-08-17T11:40:07.325Z,39.02
2022-08-17T11:42:48.959Z,39.51
2022-08-17T11:45:54.403Z,39.60
2022-08-17T11:48:51.695Z,40.07
2022-08-17T11:51:42.062Z,39.53
2022-08-17T11:54:34.171Z,40.69
2022-08-17T11:57:40.624Z,39.82
2022-08-17T12:00:11.350Z,39.98
2022-08-17T12:02:47.084Z,40.07
2022-08-17T12:05:36.992Z,39.63
2022-08-17T12:08:22.675Z,38.96
2022-08-17T12:10:57.966Z,38.90
2022-08-17T12:13:27.459Z,38.70
2022-08-17T12:16:07.553Z,38.73
2022-08-17T12:18:39.458Z,38.26
2022-08-17T12:21:28.218Z,38.69
2022-08-17T12:24:06.432Z,38.16
2022-08-17T12:26:37.006Z,37.01
2022-08-17T12:29:09.181Z,37.50
2022-08-17T12:31:44.661Z,36.64
2022-08-17T12:34:17.141Z,37.10
2022-08-17T12:36:47.984Z,37.06
2022-08-17T12:39:21.541Z,36.59
2022-08-17T12:42:01.953Z,36.66
2022-08-17T12:44:32.308Z,36.73
2022-08-17T12:47:04.912Z,36.62
2022-08-17T12:49:36.007Z,36.46
2022-08-17T12:52:14.898Z,36.06
2022-08-17T12:54:49.045Z,36.07
2022-08-17T12:57:20.284Z,35.84
2022-08-17T12:59:53.316Z,35.87
2022-08-17T13:02:31.484Z,35.81
2022-08-17T13:05:02.259Z,35.85
2022-08-17T13:07:36.479Z,35.36
2022-08-17T13:10:05.433Z,35.70
2022-08-17T13:12:37.014Z,35.92
2022-08-17T13:15:05.460Z,35.92
2022-08-17T13:17:36.119Z,35.71
2022-08-17T13:20:07.046Z,35.39
2022-08-17T13:22:36.699Z,35.10
2022-08-17T13:25:09.272Z,34.74
2022-08-17T13:27:38.607Z,35.30
2022-08-17T13:30:12.664Z,35.31
2022-08-17T13:32:45.188Z,35.42
2022-08-17T13:35:39.201Z,36.09
2022-08-17T13:38:12.698Z,36.02
2022-08-17T13:40:45.203Z,36.10
2022-08-17T13:43:13.433Z,36.28
2022-08-17T13:45:50.425Z,36.75
2022-08-17T13:48:27.497Z,36.86
2022-08-17T13:51:15.122Z,36.58
2022-08-17T13:53:55.830Z,36.70
2022-08-17T13:56:38.722Z,36.02
2022-08-17T13:59:11.342Z,36.01
2022-08-17T14:01:43.076Z,36.50
2022-08-17T14:04:13.347Z,36.71
2022-08-17T14:06:54.216Z,35.92
2022-08-17T14:09:29.796Z,36.02
2022-08-17T14:12:02.075Z,35.47
2022-08-17T14:14:30.790Z,35.73
2022-08-17T14:16:58.685Z,35.10
2022-08-17T14:19:26.997Z,35.67
2022-08-17T14:21:56.890Z,35.43
2022-08-17T14:24:28.675Z,35.75
2022-08-17T14:26:57.694Z,35.83
2022-08-17T14:29:27.945Z,35.83
2022-08-17T14:31:57.625Z,35.94
2022-08-17T14:34:26.698Z,35.88
2022-08-17T14:36:54.465Z,35.98
2022-08-17T14:39:22.140Z,35.78
2022-08-17T14:41:53.306Z,35.47
2022-08-17T14:44:21.115Z,35.36
2022-08-17T14:46:50.798Z,35.38
2022-08-17T14:49:20.664Z,35.32
2022-08-17T14:51:49.156Z,35.02
2022-08-17T14:54:33.492Z,34.79
2022-08-17T14:57:22.465Z,35.51
2022-08-17T14:59:54.895Z,35.60
2022-08-17T15:02:29.726Z,35.01
2022-08-17T15:05:03.020Z,35.31
2022-08-17T15:07:31.354Z,34.64
2022-08-17T15:10:00.822Z,35.05
2022-08-17T15:12:34.091Z,34.20
2022-08-17T15:15:04.661Z,34.52
2022-08-17T15:17:44.879Z,33.87
2022-08-17T15:20:15.911Z,33.78
2022-08-17T15:22:45.348Z,34.15
2022-08-17T15:25:14.718Z,33.52
2022-08-17T15:27:44.355Z,33.25
2022-08-17T15:30:13.674Z,32.99
2022-08-17T15:32:46.865Z,33.24
2022-08-17T15:35:28.305Z,33.39
2022-08-17T15:37:58.369Z,33.20
2022-08-17T15:40:26.683Z,33.05
2022-08-17T15:42:57.702Z,33.25
2022-08-17T15:45:28.677Z,33.02
2022-08-17T15:47:56.449Z,33.15
2022-08-17T15:50:24.217Z,32.93
2022-08-17T15:52:57.925Z,32.93
2022-08-17T15:55:28.141Z,33.12
2022-08-17T15:57:57.408Z,33.01
2022-08-17T16:00:28.619Z,33.15
2022-08-17T16:03:44.586Z,33.25
2022-08-17T16:05:46.361Z,33.33
2022-08-17T16:08:20.039Z,33.19
2022-08-17T16:10:49.580Z,32.96
2022-08-17T16:13:19.669Z,32.85
2022-08-17T16:15:57.305Z,32.71
2022-08-17T16:18:28.297Z,32.58
2022-08-17T16:20:56.715Z,32.42
2022-08-17T16:23:25.342Z,32.33
2022-08-17T16:25:54.439Z,32.01
2022-08-17T16:28:36.061Z,31.82
2022-08-17T16:31:08.073Z,31.52
2022-08-17T16:33:39.336Z,31.63
2022-08-17T16:36:08.403Z,31.77
2022-08-17T16:38:37.093Z,31.88
2022-08-17T16:41:05.849Z,31.83
2022-08-17T16:43:36.046Z,31.64
2022-08-17T16:46:03.764Z,31.47
2022-08-17T16:48:32.019Z,31.42
2022-08-17T16:51:03.838Z,31.48
2022-08-17T16:53:32.621Z,31.46
2022-08-17T16:56:00.446Z,31.25
2022-08-17T16:58:28.293Z,31.06
2022-08-17T17:00:59.393Z,30.80
2022-08-17T17:03:30.555Z,30.80
2022-08-17T17:06:08.727Z,30.76
2022-08-17T17:08:44.404Z,30.67
2022-08-17T17:11:16.756Z,30.62
2022-08-17T17:13:50.307Z,30.48
2022-08-17T17:16:24.346Z,30.41
2022-08-17T17:19:06.956Z,30.49
2022-08-17T17:21:44.913Z,30.26
2022-08-17T17:24:18.791Z,30.11
2022-08-17T17:26:59.483Z,30.00
2022-08-17T17:29:48.125Z,29.91
2022-08-17T17:32:23.134Z,29.83
2022-08-17T17:34:56.042Z,29.67
2022-08-17T17:37:28.634Z,29.53
2022-08-17T17:40:01.076Z,29.44
2022-08-17T17:42:33.041Z,29.23
2022-08-17T17:45:08.086Z,29.08
2022-08-17T17:47:38.335Z,28.89
2022-08-17T17:50:07.839Z,28.83
2022-08-17T17:52:47.710Z,28.81
2022-08-17T17:55:25.908Z,28.66
2022-08-17T17:58:04.593Z,28.48
2022-08-17T18:00:39.448Z,28.42
2022-08-17T18:03:26.814Z,28.20
2022-08-17T18:06:12.563Z,28.26
2022-08-17T18:08:56.068Z,28.06
2022-08-17T18:11:46.976Z,27.93
2022-08-17T18:14:37.568Z,27.74
2022-08-17T18:17:07.175Z,27.58
2022-08-17T18:19:38.862Z,27.44
2022-08-17T18:22:14.399Z,27.33
2022-08-17T18:24:44.417Z,27.20
2022-08-17T18:27:23.453Z,27.17
2022-08-17T18:29:52.799Z,27.02
2022-08-17T18:32:27.887Z,26.96
2022-08-17T18:34:59.468Z,26.82
2022-08-17T18:37:49.284Z,26.77
2022-08-17T18:40:37.654Z,26.65
2022-08-17T18:43:14.249Z,26.61
2022-08-17T18:45:46.929Z,26.44
2022-08-17T18:48:36.480Z,26.25
2022-08-17T18:51:37.269Z,26.18
2022-08-17T18:54:16.466Z,26.02
2022-08-17T18:56:49.290Z,25.90
2022-08-17T18:59:28.310Z,25.82
2022-08-17T19:02:27.208Z,25.67
2022-08-17T19:05:09.693Z,25.46
2022-08-17T19:07:42.179Z,25.46
2022-08-17T19:10:22.443Z,25.37
2022-08-17T19:13:00.393Z,25.28
2022-08-17T19:15:34.579Z,25.24
2022-08-17T19:18:15.135Z,25.16
2022-08-17T19:20:48.941Z,25.22
2022-08-17T19:23:26.281Z,25.23
2022-08-17T19:25:58.649Z,25.30
2022-08-17T19:28:31.078Z,25.27
2022-08-17T19:31:03.972Z,25.26
2022-08-17T19:33:32.626Z,25.09
2022-08-17T19:36:07.348Z,24.86
2022-08-17T19:38:45.084Z,24.79
2022-08-17T19:41:22.065Z,24.75
2022-08-17T19:44:07.749Z,24.67
2022-08-17T19:46:49.876Z,24.65
2022-08-17T19:49:33.247Z,24.68
2022-08-17T19:52:27.325Z,24.79
2022-08-17T19:55:01.587Z,24.62
2022-08-17T19:57:44.085Z,24.56
2022-08-17T20:00:16.416Z,24.54
2022-08-17T20:02:52.649Z,24.36
2022-08-17T20:05:24.953Z,24.33
2022-08-17T20:07:59.004Z,24.27
2022-08-17T20:10:39.637Z,24.07
2022-08-17T20:13:11.902Z,24.21
2022-08-17T20:15:43.170Z,24.18
2022-08-17T20:18:20.865Z,24.10
2022-08-17T20:20:57.384Z,24.20
2022-08-17T20:23:44.735Z,24.03
2022-08-17T20:26:21.944Z,23.98
2022-08-17T20:29:37.008Z,24.06
2022-08-17T20:32:27.747Z,23.92
2022-08-17T20:35:08.872Z,23.91
2022-08-17T20:37:43.066Z,23.73
2022-08-17T20:40:36.673Z,23.68
2022-08-17T20:43:48.073Z,23.76
2022-08-17T20:46:47.564Z,23.61
2022-08-17T20:49:24.385Z,23.59
2022-08-17T20:52:01.757Z,23.42
2022-08-17T20:54:50.080Z,23.36
2022-08-17T20:57:48.442Z,23.32
2022-08-17T21:00:44.706Z,23.21
2022-08-17T21:03:51.288Z,23.11
2022-08-17T21:06:23.347Z,22.92
2022-08-17T21:08:54.838Z,22.88
2022-08-17T21:11:56.975Z,22.67
2022-08-17T21:14:44.398Z,22.59
2022-08-17T21:17:40.731Z,22.75
2022-08-17T21:20:32.218Z,22.77
2022-08-17T21:23:35.455Z,22.91
2022-08-17T21:26:17.662Z,22.95
2022-08-17T21:29:31.779Z,22.99
2022-08-17T21:32:18.495Z,22.90
2022-08-17T21:35:28.428Z,22.76
2022-08-17T21:38:03.197Z,22.65
2022-08-17T21:40:33.549Z,22.55
2022-08-17T21:43:09.334Z,22.46
2022-08-17T21:45:39.446Z,22.41
2022-08-17T21:48:13.045Z,22.35
2022-08-17T21:50:47.515Z,22.30
2022-08-17T21:53:28.090Z,22.31
2022-08-17T21:55:58.643Z,22.30
2022-08-17T21:58:32.460Z,22.22
2022-08-17T22:01:22.886Z,22.25
2022-08-17T22:04:01.531Z,22.20
2022-08-17T22:06:36.603Z,22.17
2022-08-17T22:09:15.812Z,22.01
2022-08-17T22:11:52.656Z,22.07
2022-08-17T22:14:22.700Z,21.94
2022-08-17T22:17:07.803Z,21.78
2022-08-17T22:19:36.270Z,21.62
2022-08-17T22:22:07.648Z,21.59
2022-08-17T22:24:36.791Z,21.44
2022-08-17T22:27:10.395Z,21.32
2022-08-17T22:29:57.095Z,21.35
2022-08-17T22:32:42.659Z,21.29
2022-08-17T22:35:37.976Z,21.36
2022-08-17T22:38:35.302Z,21.28
2022-08-17T22:41:26.692Z,21.10
2022-08-17T22:43:57.710Z,21.06
2022-08-17T22:46:26.639Z,21.06
2022-08-17T22:48:58.169Z,21.02
2022-08-17T22:51:30.465Z,21.00
2022-08-17T22:54:21.489Z,20.90
2022-08-17T22:57:12.882Z,20.84
2022-08-17T22:59:46.521Z,20.82
2022-08-17T23:02:22.004Z,20.83
2022-08-17T23:04:52.398Z,20.94
2022-08-17T23:07:21.850Z,21.01
2022-08-17T23:09:53.309Z,21.03
2022-08-17T23:12:26.762Z,21.01
2022-08-17T23:15:00.523Z,21.05
2022-08-17T23:17:33.971Z,21.07
2022-08-17T23:20:06.490Z,21.10
2022-08-17T23:22:34.397Z,21.14
2022-08-17T23:25:06.154Z,21.05
2022-08-17T23:27:33.928Z,21.03
2022-08-17T23:30:01.665Z,21.01
2022-08-17T23:32:29.759Z,20.98
2022-08-17T23:34:59.073Z,20.92
2022-08-17T23:37:28.773Z,21.01
2022-08-17T23:39:56.539Z,20.98
2022-08-17T23:42:26.080Z,20.98
2022-08-17T23:44:54.015Z,20.94
2022-08-17T23:47:21.789Z,21.01
2022-08-17T23:49:49.529Z,20.97
2022-08-17T23:52:22.728Z,20.95
2022-08-17T23:54:50.833Z,20.96
2022-08-17T23:57:33.893Z,21.01
